sensor_id;sensor_type;location;lat;lon;timestamp;P1;durP1;ratioP1;P2;durP2;ratioP2
63018;SDS011;49105;46.046;10.760;2024-01-30T00:01:30;3.13;;;3.03;;
63018;SDS011;49105;46.046;10.760;2024-01-30T00:03:56;2.60;;;2.60;;
63018;SDS011;49105;46.046;10.760;2024-01-30T00:06:21;2.70;;;2.65;;
63018;SDS011;49105;46.046;10.760;2024-01-30T00:08:48;3.85;;;3.65;;
63018;SDS011;49105;46.046;10.760;2024-01-30T00:11:14;2.95;;;2.85;;
63018;SDS011;49105;46.046;10.760;2024-01-30T00:13:41;3.00;;;2.92;;
63018;SDS011;49105;46.046;10.760;2024-01-30T00:16:07;3.00;;;2.80;;
63018;SDS011;49105;46.046;10.760;2024-01-30T00:18:33;3.05;;;2.95;;
63018;SDS011;49105;46.046;10.760;2024-01-30T00:20:59;5.05;;;4.85;;
63018;SDS011;49105;46.046;10.760;2024-01-30T00:23:25;4.15;;;4.00;;
63018;SDS011;49105;46.046;10.760;2024-01-30T00:25:51;2.50;;;2.50;;
63018;SDS011;49105;46.046;10.760;2024-01-30T00:28:17;3.15;;;3.05;;
63018;SDS011;49105;46.046;10.760;2024-01-30T00:30:43;4.28;;;4.07;;
63018;SDS011;49105;46.046;10.760;2024-01-30T00:33:09;3.50;;;3.40;;
63018;SDS011;49105;46.046;10.760;2024-01-30T00:35:35;2.50;;;2.50;;
63018;SDS011;49105;46.046;10.760;2024-01-30T00:38:01;2.90;;;2.80;;
63018;SDS011;49105;46.046;10.760;2024-01-30T00:40:26;3.17;;;3.08;;
63018;SDS011;49105;46.046;10.760;2024-01-30T00:42:52;4.18;;;4.03;;
63018;SDS011;49105;46.046;10.760;2024-01-30T00:45:18;3.03;;;2.92;;
63018;SDS011;49105;46.046;10.760;2024-01-30T00:47:43;3.25;;;3.15;;
63018;SDS011;49105;46.046;10.760;2024-01-30T00:50:09;3.17;;;3.08;;
63018;SDS011;49105;46.046;10.760;2024-01-30T00:52:36;3.63;;;3.53;;
63018;SDS011;49105;46.046;10.760;2024-01-30T00:55:04;3.08;;;2.97;;
63018;SDS011;49105;46.046;10.760;2024-01-30T00:57:30;4.85;;;4.22;;
63018;SDS011;49105;46.046;10.760;2024-01-30T00:59:57;3.55;;;3.42;;
63018;SDS011;49105;46.046;10.760;2024-01-30T01:02:23;3.40;;;3.30;;
63018;SDS011;49105;46.046;10.760;2024-01-30T01:04:49;2.88;;;2.78;;
63018;SDS011;49105;46.046;10.760;2024-01-30T01:07:15;2.97;;;2.88;;
63018;SDS011;49105;46.046;10.760;2024-01-30T01:09:41;3.25;;;3.15;;
63018;SDS011;49105;46.046;10.760;2024-01-30T01:12:07;3.10;;;2.95;;
63018;SDS011;49105;46.046;10.760;2024-01-30T01:14:33;2.92;;;2.83;;
63018;SDS011;49105;46.046;10.760;2024-01-30T01:17:01;2.72;;;2.63;;
63018;SDS011;49105;46.046;10.760;2024-01-30T01:19:26;3.42;;;3.30;;
63018;SDS011;49105;46.046;10.760;2024-01-30T01:21:53;2.70;;;2.65;;
63018;SDS011;49105;46.046;10.760;2024-01-30T01:24:18;2.92;;;2.83;;
63018;SDS011;49105;46.046;10.760;2024-01-30T01:26:45;2.70;;;2.65;;
63018;SDS011;49105;46.046;10.760;2024-01-30T01:29:10;2.50;;;2.50;;
63018;SDS011;49105;46.046;10.760;2024-01-30T01:31:37;2.88;;;2.78;;
63018;SDS011;49105;46.046;10.760;2024-01-30T01:34:12;2.50;;;2.50;;
63018;SDS011;49105;46.046;10.760;2024-01-30T01:36:39;3.20;;;3.10;;
63018;SDS011;49105;46.046;10.760;2024-01-30T01:39:05;3.20;;;3.10;;
63018;SDS011;49105;46.046;10.760;2024-01-30T01:41:31;2.47;;;2.47;;
63018;SDS011;49105;46.046;10.760;2024-01-30T01:43:58;3.38;;;3.28;;
63018;SDS011;49105;46.046;10.760;2024-01-30T01:46:26;2.88;;;2.78;;
63018;SDS011;49105;46.046;10.760;2024-01-30T01:48:52;3.30;;;3.20;;
63018;SDS011;49105;46.046;10.760;2024-01-30T01:51:21;3.63;;;3.53;;
63018;SDS011;49105;46.046;10.760;2024-01-30T01:53:48;3.10;;;3.00;;
63018;SDS011;49105;46.046;10.760;2024-01-30T01:56:14;3.53;;;3.42;;
63018;SDS011;49105;46.046;10.760;2024-01-30T01:58:40;2.38;;;2.38;;
63018;SDS011;49105;46.046;10.760;2024-01-30T02:01:07;2.30;;;2.30;;
63018;SDS011;49105;46.046;10.760;2024-01-30T02:03:33;2.97;;;2.78;;
63018;SDS011;49105;46.046;10.760;2024-01-30T02:06:00;2.90;;;2.80;;
63018;SDS011;49105;46.046;10.760;2024-01-30T02:08:27;3.28;;;2.97;;
63018;SDS011;49105;46.046;10.760;2024-01-30T02:10:54;2.45;;;2.45;;
63018;SDS011;49105;46.046;10.760;2024-01-30T02:13:21;2.40;;;2.40;;
63018;SDS011;49105;46.046;10.760;2024-01-30T02:15:51;2.00;;;2.00;;
63018;SDS011;49105;46.046;10.760;2024-01-30T02:18:16;3.35;;;3.25;;
63018;SDS011;49105;46.046;10.760;2024-01-30T02:20:42;2.35;;;2.35;;
63018;SDS011;49105;46.046;10.760;2024-01-30T02:23:09;2.28;;;2.28;;
63018;SDS011;49105;46.046;10.760;2024-01-30T02:25:40;2.78;;;2.67;;
63018;SDS011;49105;46.046;10.760;2024-01-30T02:28:12;3.75;;;3.55;;
63018;SDS011;49105;46.046;10.760;2024-01-30T02:30:40;2.50;;;2.50;;
63018;SDS011;49105;46.046;10.760;2024-01-30T02:33:05;2.97;;;2.50;;
63018;SDS011;49105;46.046;10.760;2024-01-30T02:35:31;2.53;;;2.42;;
63018;SDS011;49105;46.046;10.760;2024-01-30T02:37:57;2.47;;;2.47;;
63018;SDS011;49105;46.046;10.760;2024-01-30T02:40:22;2.65;;;2.55;;
63018;SDS011;49105;46.046;10.760;2024-01-30T02:42:49;7.80;;;3.05;;
63018;SDS011;49105;46.046;10.760;2024-01-30T02:45:15;2.63;;;2.58;;
63018;SDS011;49105;46.046;10.760;2024-01-30T02:47:41;2.45;;;2.35;;
63018;SDS011;49105;46.046;10.760;2024-01-30T02:50:08;2.10;;;2.10;;
63018;SDS011;49105;46.046;10.760;2024-01-30T02:52:33;2.70;;;2.60;;
63018;SDS011;49105;46.046;10.760;2024-01-30T02:54:59;2.30;;;2.30;;
63018;SDS011;49105;46.046;10.760;2024-01-30T02:57:25;2.13;;;2.13;;
63018;SDS011;49105;46.046;10.760;2024-01-30T02:59:51;2.80;;;2.70;;
63018;SDS011;49105;46.046;10.760;2024-01-30T03:02:17;2.50;;;2.50;;
63018;SDS011;49105;46.046;10.760;2024-01-30T03:04:43;2.75;;;2.67;;
63018;SDS011;49105;46.046;10.760;2024-01-30T03:07:09;2.83;;;2.72;;
63018;SDS011;49105;46.046;10.760;2024-01-30T03:09:36;5.93;;;3.00;;
63018;SDS011;49105;46.046;10.760;2024-01-30T03:12:02;3.30;;;3.20;;
63018;SDS011;49105;46.046;10.760;2024-01-30T03:14:30;2.85;;;2.78;;
63018;SDS011;49105;46.046;10.760;2024-01-30T03:16:57;2.63;;;2.60;;
63018;SDS011;49105;46.046;10.760;2024-01-30T03:19:23;2.75;;;2.65;;
63018;SDS011;49105;46.046;10.760;2024-01-30T03:21:49;2.47;;;2.47;;
63018;SDS011;49105;46.046;10.760;2024-01-30T03:24:16;2.78;;;2.67;;
63018;SDS011;49105;46.046;10.760;2024-01-30T03:26:42;3.17;;;3.08;;
63018;SDS011;49105;46.046;10.760;2024-01-30T03:29:08;2.80;;;2.70;;
63018;SDS011;49105;46.046;10.760;2024-01-30T03:31:34;2.90;;;2.80;;
63018;SDS011;49105;46.046;10.760;2024-01-30T03:34:00;2.50;;;2.50;;
63018;SDS011;49105;46.046;10.760;2024-01-30T03:36:26;2.65;;;2.63;;
63018;SDS011;49105;46.046;10.760;2024-01-30T03:38:52;2.80;;;2.70;;
63018;SDS011;49105;46.046;10.760;2024-01-30T03:41:18;2.65;;;2.55;;
63018;SDS011;49105;46.046;10.760;2024-01-30T03:43:47;2.38;;;2.38;;
63018;SDS011;49105;46.046;10.760;2024-01-30T03:46:12;2.40;;;2.40;;
63018;SDS011;49105;46.046;10.760;2024-01-30T03:48:39;2.55;;;2.50;;
63018;SDS011;49105;46.046;10.760;2024-01-30T03:51:05;2.38;;;2.38;;
63018;SDS011;49105;46.046;10.760;2024-01-30T03:53:30;2.25;;;2.25;;
63018;SDS011;49105;46.046;10.760;2024-01-30T03:55:56;2.70;;;2.60;;
63018;SDS011;49105;46.046;10.760;2024-01-30T03:58:22;2.10;;;2.10;;
63018;SDS011;49105;46.046;10.760;2024-01-30T04:00:48;2.28;;;2.25;;
63018;SDS011;49105;46.046;10.760;2024-01-30T04:03:17;2.83;;;2.72;;
63018;SDS011;49105;46.046;10.760;2024-01-30T04:05:43;2.75;;;2.65;;
63018;SDS011;49105;46.046;10.760;2024-01-30T04:08:09;2.05;;;2.05;;
63018;SDS011;49105;46.046;10.760;2024-01-30T04:10:35;2.10;;;2.10;;
63018;SDS011;49105;46.046;10.760;2024-01-30T04:13:02;2.63;;;2.58;;
63018;SDS011;49105;46.046;10.760;2024-01-30T04:15:27;2.17;;;2.17;;
63018;SDS011;49105;46.046;10.760;2024-01-30T04:17:56;2.05;;;2.05;;
63018;SDS011;49105;46.046;10.760;2024-01-30T04:20:23;3.95;;;3.75;;
63018;SDS011;49105;46.046;10.760;2024-01-30T04:22:49;2.33;;;2.33;;
63018;SDS011;49105;46.046;10.760;2024-01-30T04:25:14;2.85;;;2.75;;
63018;SDS011;49105;46.046;10.760;2024-01-30T04:27:40;2.30;;;2.30;;
63018;SDS011;49105;46.046;10.760;2024-01-30T04:30:06;2.15;;;2.15;;
63018;SDS011;49105;46.046;10.760;2024-01-30T04:32:32;2.47;;;2.47;;
63018;SDS011;49105;46.046;10.760;2024-01-30T04:34:58;2.72;;;2.63;;
63018;SDS011;49105;46.046;10.760;2024-01-30T04:37:24;1.90;;;1.90;;
63018;SDS011;49105;46.046;10.760;2024-01-30T04:39:50;2.10;;;2.10;;
63018;SDS011;49105;46.046;10.760;2024-01-30T04:42:16;2.10;;;2.10;;
63018;SDS011;49105;46.046;10.760;2024-01-30T04:44:42;5.50;;;2.78;;
63018;SDS011;49105;46.046;10.760;2024-01-30T04:47:08;2.35;;;2.35;;
63018;SDS011;49105;46.046;10.760;2024-01-30T04:49:36;2.30;;;2.30;;
63018;SDS011;49105;46.046;10.760;2024-01-30T04:52:01;2.50;;;2.40;;
63018;SDS011;49105;46.046;10.760;2024-01-30T04:54:27;2.35;;;2.35;;
63018;SDS011;49105;46.046;10.760;2024-01-30T04:56:53;2.30;;;2.30;;
63018;SDS011;49105;46.046;10.760;2024-01-30T04:59:20;2.67;;;2.60;;
63018;SDS011;49105;46.046;10.760;2024-01-30T05:01:45;1.92;;;1.92;;
63018;SDS011;49105;46.046;10.760;2024-01-30T05:04:11;3.55;;;3.35;;
63018;SDS011;49105;46.046;10.760;2024-01-30T05:06:37;2.30;;;2.30;;
63018;SDS011;49105;46.046;10.760;2024-01-30T05:09:04;2.15;;;2.15;;
63018;SDS011;49105;46.046;10.760;2024-01-30T05:11:30;3.80;;;3.60;;
63018;SDS011;49105;46.046;10.760;2024-01-30T05:13:56;2.67;;;2.60;;
63018;SDS011;49105;46.046;10.760;2024-01-30T05:16:22;2.47;;;2.47;;
63018;SDS011;49105;46.046;10.760;2024-01-30T05:18:48;3.13;;;3.03;;
63018;SDS011;49105;46.046;10.760;2024-01-30T05:21:14;2.30;;;2.30;;
63018;SDS011;49105;46.046;10.760;2024-01-30T05:23:40;2.33;;;2.33;;
63018;SDS011;49105;46.046;10.760;2024-01-30T05:26:07;2.05;;;2.05;;
63018;SDS011;49105;46.046;10.760;2024-01-30T05:28:33;2.67;;;2.58;;
63018;SDS011;49105;46.046;10.760;2024-01-30T05:30:59;2.60;;;2.42;;
63018;SDS011;49105;46.046;10.760;2024-01-30T05:33:25;1.95;;;1.95;;
63018;SDS011;49105;46.046;10.760;2024-01-30T05:35:51;2.30;;;2.30;;
63018;SDS011;49105;46.046;10.760;2024-01-30T05:38:25;2.00;;;2.00;;
63018;SDS011;49105;46.046;10.760;2024-01-30T05:40:50;2.15;;;2.15;;
63018;SDS011;49105;46.046;10.760;2024-01-30T05:43:17;1.80;;;1.80;;
63018;SDS011;49105;46.046;10.760;2024-01-30T05:45:43;3.53;;;3.33;;
63018;SDS011;49105;46.046;10.760;2024-01-30T05:48:09;2.30;;;2.20;;
63018;SDS011;49105;46.046;10.760;2024-01-30T05:50:35;2.63;;;2.53;;
63018;SDS011;49105;46.046;10.760;2024-01-30T05:53:01;2.10;;;2.10;;
63018;SDS011;49105;46.046;10.760;2024-01-30T05:55:26;2.92;;;2.83;;
63018;SDS011;49105;46.046;10.760;2024-01-30T05:57:52;2.30;;;2.30;;
63018;SDS011;49105;46.046;10.760;2024-01-30T06:00:22;2.90;;;2.80;;
63018;SDS011;49105;46.046;10.760;2024-01-30T06:02:47;2.40;;;2.40;;
63018;SDS011;49105;46.046;10.760;2024-01-30T06:05:13;2.20;;;2.20;;
63018;SDS011;49105;46.046;10.760;2024-01-30T06:07:39;2.42;;;2.33;;
63018;SDS011;49105;46.046;10.760;2024-01-30T06:10:05;2.85;;;2.78;;
63018;SDS011;49105;46.046;10.760;2024-01-30T06:12:34;2.10;;;2.10;;
63018;SDS011;49105;46.046;10.760;2024-01-30T06:15:00;3.35;;;3.15;;
63018;SDS011;49105;46.046;10.760;2024-01-30T06:17:26;3.35;;;3.03;;
63018;SDS011;49105;46.046;10.760;2024-01-30T06:19:53;2.72;;;2.63;;
63018;SDS011;49105;46.046;10.760;2024-01-30T06:22:19;3.00;;;2.90;;
63018;SDS011;49105;46.046;10.760;2024-01-30T06:24:44;3.72;;;3.33;;
63018;SDS011;49105;46.046;10.760;2024-01-30T06:27:12;2.70;;;2.60;;
63018;SDS011;49105;46.046;10.760;2024-01-30T06:29:38;2.40;;;2.38;;
63018;SDS011;49105;46.046;10.760;2024-01-30T06:32:04;2.47;;;2.47;;
63018;SDS011;49105;46.046;10.760;2024-01-30T06:34:30;3.00;;;2.90;;
63018;SDS011;49105;46.046;10.760;2024-01-30T06:36:57;2.80;;;2.70;;
63018;SDS011;49105;46.046;10.760;2024-01-30T06:39:23;2.50;;;2.50;;
63018;SDS011;49105;46.046;10.760;2024-01-30T06:41:49;3.47;;;3.38;;
63018;SDS011;49105;46.046;10.760;2024-01-30T06:44:15;3.40;;;3.30;;
63018;SDS011;49105;46.046;10.760;2024-01-30T06:46:41;2.95;;;2.85;;
63018;SDS011;49105;46.046;10.760;2024-01-30T06:49:12;4.28;;;3.72;;
63018;SDS011;49105;46.046;10.760;2024-01-30T06:51:38;3.00;;;2.90;;
63018;SDS011;49105;46.046;10.760;2024-01-30T06:54:04;2.85;;;2.75;;
63018;SDS011;49105;46.046;10.760;2024-01-30T06:56:31;3.65;;;3.55;;
63018;SDS011;49105;46.046;10.760;2024-01-30T06:58:58;3.95;;;3.80;;
63018;SDS011;49105;46.046;10.760;2024-01-30T07:01:30;5.55;;;5.28;;
63018;SDS011;49105;46.046;10.760;2024-01-30T07:03:57;5.45;;;4.25;;
63018;SDS011;49105;46.046;10.760;2024-01-30T07:06:23;4.22;;;3.90;;
63018;SDS011;49105;46.046;10.760;2024-01-30T07:08:51;2.60;;;2.50;;
63018;SDS011;49105;46.046;10.760;2024-01-30T07:11:20;3.10;;;2.92;;
63018;SDS011;49105;46.046;10.760;2024-01-30T07:13:47;3.00;;;2.90;;
63018;SDS011;49105;46.046;10.760;2024-01-30T07:16:13;4.97;;;3.00;;
63018;SDS011;49105;46.046;10.760;2024-01-30T07:18:39;2.88;;;2.75;;
63018;SDS011;49105;46.046;10.760;2024-01-30T07:21:05;3.53;;;3.42;;
63018;SDS011;49105;46.046;10.760;2024-01-30T07:23:31;2.92;;;2.83;;
63018;SDS011;49105;46.046;10.760;2024-01-30T07:25:59;2.33;;;2.33;;
63018;SDS011;49105;46.046;10.760;2024-01-30T07:28:25;2.88;;;2.78;;
63018;SDS011;49105;46.046;10.760;2024-01-30T07:30:50;3.05;;;2.95;;
63018;SDS011;49105;46.046;10.760;2024-01-30T07:33:16;3.17;;;2.97;;
63018;SDS011;49105;46.046;10.760;2024-01-30T07:35:43;4.57;;;4.22;;
63018;SDS011;49105;46.046;10.760;2024-01-30T07:38:09;3.78;;;3.60;;
63018;SDS011;49105;46.046;10.760;2024-01-30T07:40:34;3.42;;;3.25;;
63018;SDS011;49105;46.046;10.760;2024-01-30T07:43:01;3.00;;;2.90;;
63018;SDS011;49105;46.046;10.760;2024-01-30T07:45:28;3.30;;;3.20;;
63018;SDS011;49105;46.046;10.760;2024-01-30T07:47:57;5.43;;;3.55;;
63018;SDS011;49105;46.046;10.760;2024-01-30T07:50:24;2.53;;;2.50;;
63018;SDS011;49105;46.046;10.760;2024-01-30T07:52:51;3.45;;;3.35;;
63018;SDS011;49105;46.046;10.760;2024-01-30T07:55:19;3.08;;;2.97;;
63018;SDS011;49105;46.046;10.760;2024-01-30T07:57:46;3.25;;;3.15;;
63018;SDS011;49105;46.046;10.760;2024-01-30T08:00:12;3.63;;;3.38;;
63018;SDS011;49105;46.046;10.760;2024-01-30T08:02:41;3.38;;;3.17;;
63018;SDS011;49105;46.046;10.760;2024-01-30T08:05:07;4.25;;;3.40;;
63018;SDS011;49105;46.046;10.760;2024-01-30T08:07:36;2.67;;;2.58;;
63018;SDS011;49105;46.046;10.760;2024-01-30T08:10:02;2.78;;;2.67;;
63018;SDS011;49105;46.046;10.760;2024-01-30T08:12:28;2.70;;;2.60;;
63018;SDS011;49105;46.046;10.760;2024-01-30T08:14:54;4.38;;;4.07;;
63018;SDS011;49105;46.046;10.760;2024-01-30T08:17:21;2.80;;;2.70;;
63018;SDS011;49105;46.046;10.760;2024-01-30T08:19:48;3.28;;;3.17;;
63018;SDS011;49105;46.046;10.760;2024-01-30T08:22:14;3.05;;;2.85;;
63018;SDS011;49105;46.046;10.760;2024-01-30T08:24:40;3.13;;;3.03;;
63018;SDS011;49105;46.046;10.760;2024-01-30T08:27:07;2.80;;;2.70;;
63018;SDS011;49105;46.046;10.760;2024-01-30T08:29:35;3.28;;;3.17;;
63018;SDS011;49105;46.046;10.760;2024-01-30T08:32:01;5.35;;;4.03;;
63018;SDS011;49105;46.046;10.760;2024-01-30T08:34:27;3.10;;;2.90;;
63018;SDS011;49105;46.046;10.760;2024-01-30T08:36:53;2.60;;;2.60;;
63018;SDS011;49105;46.046;10.760;2024-01-30T08:39:19;3.10;;;2.75;;
63018;SDS011;49105;46.046;10.760;2024-01-30T08:41:45;17.33;;;3.30;;
63018;SDS011;49105;46.046;10.760;2024-01-30T08:44:11;3.53;;;3.28;;
63018;SDS011;49105;46.046;10.760;2024-01-30T08:46:38;4.57;;;4.18;;
63018;SDS011;49105;46.046;10.760;2024-01-30T08:49:05;4.05;;;3.85;;
63018;SDS011;49105;46.046;10.760;2024-01-30T08:51:30;4.60;;;4.28;;
63018;SDS011;49105;46.046;10.760;2024-01-30T08:53:56;3.15;;;3.05;;
63018;SDS011;49105;46.046;10.760;2024-01-30T08:56:22;3.92;;;3.72;;
63018;SDS011;49105;46.046;10.760;2024-01-30T08:58:48;3.10;;;3.00;;
63018;SDS011;49105;46.046;10.760;2024-01-30T09:01:14;4.50;;;4.30;;
63018;SDS011;49105;46.046;10.760;2024-01-30T09:03:40;2.50;;;2.47;;
63018;SDS011;49105;46.046;10.760;2024-01-30T09:06:09;3.20;;;3.10;;
63018;SDS011;49105;46.046;10.760;2024-01-30T09:08:36;2.03;;;2.03;;
63018;SDS011;49105;46.046;10.760;2024-01-30T09:13:54;3.35;;;3.20;;
63018;SDS011;49105;46.046;10.760;2024-01-30T09:16:29;4.60;;;4.25;;
63018;SDS011;49105;46.046;10.760;2024-01-30T09:18:55;4.07;;;3.88;;
63018;SDS011;49105;46.046;10.760;2024-01-30T09:21:22;4.05;;;3.75;;
63018;SDS011;49105;46.046;10.760;2024-01-30T09:23:48;3.83;;;3.72;;
63018;SDS011;49105;46.046;10.760;2024-01-30T09:26:14;3.30;;;3.20;;
63018;SDS011;49105;46.046;10.760;2024-01-30T09:28:40;3.63;;;3.53;;
63018;SDS011;49105;46.046;10.760;2024-01-30T09:31:11;2.75;;;2.65;;
63018;SDS011;49105;46.046;10.760;2024-01-30T09:33:37;4.28;;;3.90;;
63018;SDS011;49105;46.046;10.760;2024-01-30T09:36:03;3.10;;;3.00;;
63018;SDS011;49105;46.046;10.760;2024-01-30T09:38:31;2.35;;;2.35;;
63018;SDS011;49105;46.046;10.760;2024-01-30T09:40:57;2.85;;;2.75;;
63018;SDS011;49105;46.046;10.760;2024-01-30T09:43:27;2.53;;;2.50;;
63018;SDS011;49105;46.046;10.760;2024-01-30T09:45:59;6.90;;;2.83;;
63018;SDS011;49105;46.046;10.760;2024-01-30T09:48:27;1.92;;;1.92;;
63018;SDS011;49105;46.046;10.760;2024-01-30T09:50:56;3.22;;;3.03;;
63018;SDS011;49105;46.046;10.760;2024-01-30T09:53:22;3.97;;;3.78;;
63018;SDS011;49105;46.046;10.760;2024-01-30T09:55:50;2.17;;;2.17;;
63018;SDS011;49105;46.046;10.760;2024-01-30T09:58:16;3.28;;;3.15;;
63018;SDS011;49105;46.046;10.760;2024-01-30T10:00:42;2.67;;;2.58;;
63018;SDS011;49105;46.046;10.760;2024-01-30T10:03:08;2.47;;;2.47;;
63018;SDS011;49105;46.046;10.760;2024-01-30T10:05:34;2.92;;;2.83;;
63018;SDS011;49105;46.046;10.760;2024-01-30T10:08:05;4.93;;;4.43;;
63018;SDS011;49105;46.046;10.760;2024-01-30T10:10:32;2.40;;;2.30;;
63018;SDS011;49105;46.046;10.760;2024-01-30T10:12:58;2.88;;;2.78;;
63018;SDS011;49105;46.046;10.760;2024-01-30T10:15:24;2.75;;;2.65;;
63018;SDS011;49105;46.046;10.760;2024-01-30T10:17:51;3.30;;;3.10;;
63018;SDS011;49105;46.046;10.760;2024-01-30T10:20:17;3.95;;;3.75;;
63018;SDS011;49105;46.046;10.760;2024-01-30T10:22:44;4.90;;;4.47;;
63018;SDS011;49105;46.046;10.760;2024-01-30T10:25:11;4.10;;;3.92;;
63018;SDS011;49105;46.046;10.760;2024-01-30T10:27:37;2.67;;;2.55;;
63018;SDS011;49105;46.046;10.760;2024-01-30T10:30:05;2.58;;;2.50;;
63018;SDS011;49105;46.046;10.760;2024-01-30T10:32:31;2.65;;;2.55;;
63018;SDS011;49105;46.046;10.760;2024-01-30T10:34:57;2.35;;;2.35;;
63018;SDS011;49105;46.046;10.760;2024-01-30T10:37:24;2.92;;;2.83;;
63018;SDS011;49105;46.046;10.760;2024-01-30T10:39:52;2.35;;;2.30;;
63018;SDS011;49105;46.046;10.760;2024-01-30T10:42:20;2.47;;;2.38;;
63018;SDS011;49105;46.046;10.760;2024-01-30T10:45:08;2.70;;;2.60;;
63018;SDS011;49105;46.046;10.760;2024-01-30T10:47:44;2.75;;;2.65;;
63018;SDS011;49105;46.046;10.760;2024-01-30T10:50:15;2.40;;;2.38;;
63018;SDS011;49105;46.046;10.760;2024-01-30T10:52:41;2.00;;;2.00;;
63018;SDS011;49105;46.046;10.760;2024-01-30T10:55:07;2.17;;;2.17;;
63018;SDS011;49105;46.046;10.760;2024-01-30T10:57:36;3.03;;;2.92;;
63018;SDS011;49105;46.046;10.760;2024-01-30T11:00:03;2.63;;;2.53;;
63018;SDS011;49105;46.046;10.760;2024-01-30T11:02:39;2.20;;;2.20;;
63018;SDS011;49105;46.046;10.760;2024-01-30T11:05:07;1.90;;;1.90;;
63018;SDS011;49105;46.046;10.760;2024-01-30T11:07:33;2.20;;;2.10;;
63018;SDS011;49105;46.046;10.760;2024-01-30T11:12:29;2.20;;;2.20;;
63018;SDS011;49105;46.046;10.760;2024-01-30T11:20:17;2.30;;;2.30;;
63018;SDS011;49105;46.046;10.760;2024-01-30T11:22:56;2.28;;;2.28;;
63018;SDS011;49105;46.046;10.760;2024-01-30T11:25:22;2.05;;;2.05;;
63018;SDS011;49105;46.046;10.760;2024-01-30T11:27:52;1.80;;;1.80;;
63018;SDS011;49105;46.046;10.760;2024-01-30T11:30:23;1.80;;;1.80;;
63018;SDS011;49105;46.046;10.760;2024-01-30T11:37:51;1.70;;;1.70;;
63018;SDS011;49105;46.046;10.760;2024-01-30T11:40:17;1.63;;;1.63;;
63018;SDS011;49105;46.046;10.760;2024-01-30T11:42:42;1.45;;;1.45;;
63018;SDS011;49105;46.046;10.760;2024-01-30T11:45:09;3.10;;;2.90;;
63018;SDS011;49105;46.046;10.760;2024-01-30T11:47:35;2.20;;;2.15;;
63018;SDS011;49105;46.046;10.760;2024-01-30T11:50:03;1.52;;;1.52;;
63018;SDS011;49105;46.046;10.760;2024-01-30T11:52:31;1.65;;;1.65;;
63018;SDS011;49105;46.046;10.760;2024-01-30T11:54:58;1.60;;;1.60;;
63018;SDS011;49105;46.046;10.760;2024-01-30T11:57:26;1.77;;;1.75;;
63018;SDS011;49105;46.046;10.760;2024-01-30T11:59:52;1.83;;;1.83;;
63018;SDS011;49105;46.046;10.760;2024-01-30T12:02:19;2.00;;;2.00;;
63018;SDS011;49105;46.046;10.760;2024-01-30T12:04:45;1.80;;;1.80;;
63018;SDS011;49105;46.046;10.760;2024-01-30T12:07:12;2.20;;;2.20;;
63018;SDS011;49105;46.046;10.760;2024-01-30T12:09:41;1.70;;;1.70;;
63018;SDS011;49105;46.046;10.760;2024-01-30T12:12:08;2.90;;;2.80;;
63018;SDS011;49105;46.046;10.760;2024-01-30T12:14:37;1.60;;;1.60;;
63018;SDS011;49105;46.046;10.760;2024-01-30T12:17:04;1.50;;;1.50;;
63018;SDS011;49105;46.046;10.760;2024-01-30T12:19:30;1.45;;;1.45;;
63018;SDS011;49105;46.046;10.760;2024-01-30T12:21:58;2.00;;;1.90;;
63018;SDS011;49105;46.046;10.760;2024-01-30T12:24:25;1.70;;;1.70;;
63018;SDS011;49105;46.046;10.760;2024-01-30T12:26:52;1.58;;;1.58;;
63018;SDS011;49105;46.046;10.760;2024-01-30T12:29:19;1.60;;;1.60;;
63018;SDS011;49105;46.046;10.760;2024-01-30T12:31:45;1.50;;;1.50;;
63018;SDS011;49105;46.046;10.760;2024-01-30T12:34:13;1.75;;;1.75;;
63018;SDS011;49105;46.046;10.760;2024-01-30T12:36:40;1.40;;;1.40;;
63018;SDS011;49105;46.046;10.760;2024-01-30T12:39:06;1.60;;;1.60;;
63018;SDS011;49105;46.046;10.760;2024-01-30T12:41:31;1.58;;;1.58;;
63018;SDS011;49105;46.046;10.760;2024-01-30T12:43:57;2.75;;;2.65;;
63018;SDS011;49105;46.046;10.760;2024-01-30T12:46:32;1.83;;;1.83;;
63018;SDS011;49105;46.046;10.760;2024-01-30T12:49:00;1.80;;;1.80;;
63018;SDS011;49105;46.046;10.760;2024-01-30T12:51:26;1.60;;;1.60;;
63018;SDS011;49105;46.046;10.760;2024-01-30T12:53:51;1.70;;;1.70;;
63018;SDS011;49105;46.046;10.760;2024-01-30T12:56:18;2.10;;;2.00;;
63018;SDS011;49105;46.046;10.760;2024-01-30T12:58:43;1.50;;;1.50;;
63018;SDS011;49105;46.046;10.760;2024-01-30T13:01:09;1.60;;;1.60;;
63018;SDS011;49105;46.046;10.760;2024-01-30T13:03:38;1.75;;;1.75;;
63018;SDS011;49105;46.046;10.760;2024-01-30T13:06:04;1.70;;;1.70;;
63018;SDS011;49105;46.046;10.760;2024-01-30T13:08:30;1.50;;;1.50;;
63018;SDS011;49105;46.046;10.760;2024-01-30T13:10:59;1.50;;;1.50;;
63018;SDS011;49105;46.046;10.760;2024-01-30T13:13:25;1.73;;;1.73;;
63018;SDS011;49105;46.046;10.760;2024-01-30T13:15:52;1.60;;;1.60;;
63018;SDS011;49105;46.046;10.760;2024-01-30T13:18:17;1.63;;;1.63;;
63018;SDS011;49105;46.046;10.760;2024-01-30T13:20:42;1.52;;;1.52;;
63018;SDS011;49105;46.046;10.760;2024-01-30T13:23:08;1.42;;;1.42;;
63018;SDS011;49105;46.046;10.760;2024-01-30T13:25:34;1.70;;;1.70;;
63018;SDS011;49105;46.046;10.760;2024-01-30T13:28:01;1.63;;;1.63;;
63018;SDS011;49105;46.046;10.760;2024-01-30T13:30:26;1.67;;;1.67;;
63018;SDS011;49105;46.046;10.760;2024-01-30T13:32:53;1.42;;;1.42;;
63018;SDS011;49105;46.046;10.760;2024-01-30T13:35:19;2.00;;;2.00;;
63018;SDS011;49105;46.046;10.760;2024-01-30T13:37:45;1.55;;;1.55;;
63018;SDS011;49105;46.046;10.760;2024-01-30T13:40:12;2.45;;;2.35;;
63018;SDS011;49105;46.046;10.760;2024-01-30T13:42:39;1.48;;;1.48;;
63018;SDS011;49105;46.046;10.760;2024-01-30T13:45:05;3.50;;;2.63;;
63018;SDS011;49105;46.046;10.760;2024-01-30T13:47:31;1.85;;;1.85;;
63018;SDS011;49105;46.046;10.760;2024-01-30T13:49:56;2.03;;;2.03;;
63018;SDS011;49105;46.046;10.760;2024-01-30T13:52:22;3.05;;;2.75;;
63018;SDS011;49105;46.046;10.760;2024-01-30T13:54:47;1.83;;;1.83;;
63018;SDS011;49105;46.046;10.760;2024-01-30T13:57:14;1.88;;;1.88;;
63018;SDS011;49105;46.046;10.760;2024-01-30T13:59:40;2.75;;;2.65;;
63018;SDS011;49105;46.046;10.760;2024-01-30T14:02:07;1.70;;;1.70;;
63018;SDS011;49105;46.046;10.760;2024-01-30T14:04:35;1.40;;;1.40;;
63018;SDS011;49105;46.046;10.760;2024-01-30T14:07:02;1.60;;;1.60;;
63018;SDS011;49105;46.046;10.760;2024-01-30T14:09:29;1.55;;;1.55;;
63018;SDS011;49105;46.046;10.760;2024-01-30T14:11:55;1.48;;;1.48;;
63018;SDS011;49105;46.046;10.760;2024-01-30T14:14:20;1.40;;;1.40;;
63018;SDS011;49105;46.046;10.760;2024-01-30T14:16:47;1.52;;;1.52;;
63018;SDS011;49105;46.046;10.760;2024-01-30T14:19:13;1.60;;;1.60;;
63018;SDS011;49105;46.046;10.760;2024-01-30T14:21:39;1.55;;;1.55;;
63018;SDS011;49105;46.046;10.760;2024-01-30T14:24:06;1.65;;;1.65;;
63018;SDS011;49105;46.046;10.760;2024-01-30T14:26:32;1.48;;;1.48;;
63018;SDS011;49105;46.046;10.760;2024-01-30T14:28:58;1.60;;;1.60;;
63018;SDS011;49105;46.046;10.760;2024-01-30T14:31:23;1.45;;;1.45;;
63018;SDS011;49105;46.046;10.760;2024-01-30T14:33:52;1.40;;;1.40;;
63018;SDS011;49105;46.046;10.760;2024-01-30T14:36:17;1.50;;;1.50;;
63018;SDS011;49105;46.046;10.760;2024-01-30T14:38:43;1.60;;;1.60;;
63018;SDS011;49105;46.046;10.760;2024-01-30T14:41:10;1.58;;;1.58;;
63018;SDS011;49105;46.046;10.760;2024-01-30T14:43:35;1.80;;;1.80;;
63018;SDS011;49105;46.046;10.760;2024-01-30T14:46:02;1.70;;;1.60;;